Time;durP1;ratioP1;P1;durP2;ratioP2;P2;SDS_P1;SDS_P2;PMS_P1;PMS_P2;Temp;Humidity;BMP_temperature;BMP_pressure;BME280_temperature;BME280_humidity;BME280_pressure;Samples;Min_cycle;Max_cycle;Signal;HPM_P1;HPM_P2
2024/01/10 00:02:05;;;;;;;34.95;12.40;;;;;;;-6.32;100.00;94391.47;5030565;28;20079;-66
2024/01/10 00:04:32;;;;;;;35.45;12.27;;;;;;;-6.11;100.00;94393.75;5030877;28;20049;-67
2024/01/10 00:06:58;;;;;;;37.35;12.93;;;;;;;-6.01;100.00;94388.19;5030965;28;20056;-67
2024/01/10 00:09:25;;;;;;;33.70;12.50;;;;;;;-5.88;100.00;94391.91;5030254;28;20042;-67
2024/01/10 00:11:52;;;;;;;34.30;12.68;;;;;;;-5.79;100.00;94382.09;5029771;28;20037;-67
2024/01/10 00:14:19;;;;;;;37.60;13.13;;;;;;;-5.93;100.00;94389.34;5045317;28;20079;-67
2024/01/10 00:16:45;;;;;;;31.95;13.00;;;;;;;-5.95;100.00;94389.66;5030710;28;20497;-67
2024/01/10 00:19:12;;;;;;;36.60;12.63;;;;;;;-5.85;100.00;94389.44;5030459;28;20049;-67
2024/01/10 00:21:39;;;;;;;32.13;12.33;;;;;;;-5.81;100.00;94389.63;5030499;28;20038;-67
2024/01/10 00:24:06;;;;;;;31.65;12.13;;;;;;;-5.86;100.00;94387.03;5030227;28;20053;-67
2024/01/10 00:26:32;;;;;;;32.90;12.43;;;;;;;-5.73;100.00;94396.13;5030558;28;20037;-67
2024/01/10 00:28:59;;;;;;;36.47;13.32;;;;;;;-5.72;100.00;94400.38;5029621;28;20048;-67
2024/01/10 00:31:31;;;;;;;36.63;12.98;;;;;;;-6.14;100.00;94386.31;5029593;28;20060;-67
2024/01/10 00:33:58;;;;;;;33.50;12.57;;;;;;;-6.01;100.00;94387.41;5030709;28;20045;-67
2024/01/10 00:36:25;;;;;;;38.42;13.05;;;;;;;-5.77;100.00;94377.22;5029908;28;20052;-67
2024/01/10 00:38:52;;;;;;;37.13;13.23;;;;;;;-5.68;100.00;94378.09;5030453;28;20040;-67
2024/01/10 00:41:19;;;;;;;37.35;13.27;;;;;;;-6.00;100.00;94379.06;5029824;28;20429;-67
2024/01/10 00:43:46;;;;;;;34.75;13.00;;;;;;;-5.94;100.00;94390.44;5030297;28;20037;-67
2024/01/10 00:46:13;;;;;;;37.20;13.57;;;;;;;-5.92;100.00;94385.56;5029651;28;20071;-66
2024/01/10 00:48:40;;;;;;;39.85;13.38;;;;;;;-5.99;100.00;94378.00;5029886;28;20524;-67
2024/01/10 00:51:08;;;;;;;36.75;13.68;;;;;;;-5.87;100.00;94386.25;5029770;28;20037;-67
2024/01/10 00:53:35;;;;;;;40.03;12.98;;;;;;;-5.74;100.00;94365.91;5030024;28;20037;-67
2024/01/10 00:56:02;;;;;;;35.60;12.65;;;;;;;-5.75;100.00;94382.28;5030284;28;20033;-62
2024/01/10 00:58:29;;;;;;;35.07;12.07;;;;;;;-5.69;100.00;94370.38;5028700;28;20045;-67
2024/01/10 01:00:56;;;;;;;36.83;13.80;;;;;;;-5.67;100.00;94368.19;5029957;28;20060;-67
2024/01/10 01:03:23;;;;;;;33.85;12.52;;;;;;;-5.65;100.00;94374.81;5029404;28;20053;-67
2024/01/10 01:05:50;;;;;;;35.92;12.23;;;;;;;-5.73;100.00;94372.88;5029960;28;20045;-67
2024/01/10 01:08:17;;;;;;;39.83;15.02;;;;;;;-6.03;100.00;94383.16;5029326;28;20044;-67
2024/01/10 01:10:44;;;;;;;38.27;14.10;;;;;;;-6.14;100.00;94376.41;5029748;28;20052;-67
2024/01/10 01:13:10;;;;;;;37.88;13.40;;;;;;;-6.10;100.00;94379.28;5028004;28;20044;-66
2024/01/10 01:15:37;;;;;;;36.13;13.10;;;;;;;-6.09;100.00;94379.00;5029417;28;20037;-67
2024/01/10 01:18:04;;;;;;;35.80;12.77;;;;;;;-5.90;100.00;94383.38;5028138;28;20049;-66
2024/01/10 01:20:31;;;;;;;38.42;13.07;;;;;;;-5.87;100.00;94380.91;5044433;28;20049;-67
2024/01/10 01:22:58;;;;;;;39.27;13.73;;;;;;;-6.00;100.00;94381.75;5028677;28;20482;-68
2024/01/10 01:25:25;;;;;;;38.30;13.35;;;;;;;-5.90;100.00;94383.38;5028860;28;20115;-67
2024/01/10 01:27:52;;;;;;;34.30;12.50;;;;;;;-5.80;100.00;94382.38;5029595;28;20405;-67
2024/01/10 01:30:21;;;;;;;36.35;12.95;;;;;;;-5.82;100.00;94385.34;5028982;28;20482;-67
2024/01/10 01:32:48;;;;;;;36.72;12.52;;;;;;;-5.90;100.00;94391.41;5029435;28;20075;-67
2024/01/10 01:35:15;;;;;;;35.73;12.57;;;;;;;-5.95;100.00;94387.00;5028719;28;20249;-67
2024/01/10 01:37:42;;;;;;;35.63;12.75;;;;;;;-5.84;100.00;94382.19;5029154;28;20390;-67
2024/01/10 01:40:09;;;;;;;36.13;13.55;;;;;;;-5.68;100.00;94370.06;5028668;28;20079;-66
2024/01/10 01:42:36;;;;;;;38.97;13.27;;;;;;;-5.61;100.00;94372.34;5029075;28;20041;-67
2024/01/10 01:45:03;;;;;;;38.90;14.27;;;;;;;-5.62;100.00;94374.19;5027600;28;20414;-66
2024/01/10 01:47:30;;;;;;;40.40;14.47;;;;;;;-5.72;100.00;94374.44;5028992;28;20041;-67
2024/01/10 01:49:57;;;;;;;42.22;15.10;;;;;;;-5.79;100.00;94384.75;5029341;28;20050;-67
2024/01/10 01:52:25;;;;;;;41.42;14.60;;;;;;;-5.69;100.00;94373.06;5028650;28;20068;-67
2024/01/10 01:54:51;;;;;;;37.90;14.25;;;;;;;-5.72;100.00;94382.44;5029267;28;20437;-67
2024/01/10 01:57:18;;;;;;;46.90;15.25;;;;;;;-5.83;100.00;94378.44;5028834;28;20053;-67
2024/01/10 01:59:45;;;;;;;42.27;14.90;;;;;;;-5.72;100.00;94379.78;5028929;28;20053;-67
2024/01/10 02:02:13;;;;;;;40.58;14.40;;;;;;;-5.59;100.00;94372.00;5028589;28;20041;-67
2024/01/10 02:04:41;;;;;;;44.20;15.02;;;;;;;-5.50;100.00;94380.91;5028793;28;20486;-67
2024/01/10 02:07:07;;;;;;;41.25;14.55;;;;;;;-5.70;100.00;94377.59;5028571;28;20038;-67
2024/01/10 02:09:34;;;;;;;42.15;15.32;;;;;;;-5.84;100.00;94382.19;5028651;28;20051;-67
2024/01/10 02:12:03;;;;;;;41.57;15.00;;;;;;;-6.01;100.00;94384.75;5027891;28;20146;-67
2024/01/10 02:14:30;;;;;;;43.38;14.50;;;;;;;-5.97;100.00;94383.06;5027746;28;20756;-68
2024/01/10 02:16:56;;;;;;;46.08;15.65;;;;;;;-5.85;100.00;94383.28;5028609;28;20058;-66
2024/01/10 02:19:24;;;;;;;44.78;15.48;;;;;;;-5.90;100.00;94391.41;5028527;28;20376;-67
2024/01/10 02:21:50;;;;;;;43.05;15.85;;;;;;;-5.76;100.00;94384.16;5029148;28;20532;-67
2024/01/10 02:24:17;;;;;;;40.47;15.00;;;;;;;-5.69;100.00;94383.75;5028261;28;20045;-67
2024/01/10 02:26:44;;;;;;;45.03;15.30;;;;;;;-5.71;100.00;94376.03;5028344;28;20076;-67
2024/01/10 02:29:11;;;;;;;41.72;15.18;;;;;;;-5.78;100.00;94375.63;5027442;28;20042;-66
2024/01/10 02:31:38;;;;;;;39.30;15.15;;;;;;;-5.82;100.00;94380.78;5032326;28;20044;-67
2024/01/10 02:34:04;;;;;;;38.90;14.85;;;;;;;-5.86;100.00;94374.47;5032362;28;20045;-65
2024/01/10 02:36:31;;;;;;;41.10;15.33;;;;;;;-5.81;100.00;94368.25;5032518;28;20375;-67
2024/01/10 02:38:58;;;;;;;40.70;15.10;;;;;;;-5.93;100.00;94370.66;5032514;28;20037;-67
2024/01/10 02:41:25;;;;;;;40.75;14.88;;;;;;;-5.72;100.00;94368.31;5031179;28;20520;-67
2024/01/10 02:43:51;;;;;;;42.28;15.02;;;;;;;-5.58;100.00;94357.56;5032572;28;20478;-67
2024/01/10 02:46:19;;;;;;;40.58;14.95;;;;;;;-5.43;100.00;94352.66;5030811;28;20422;-67
2024/01/10 02:48:46;;;;;;;41.07;14.87;;;;;;;-5.31;100.00;94349.44;5032435;28;20898;-67
2024/01/10 02:51:14;;;;;;;39.67;14.38;;;;;;;-5.33;100.00;94351.63;5032100;28;20037;-67
2024/01/10 02:53:40;;;;;;;45.90;16.40;;;;;;;-5.39;100.00;94350.19;5032284;28;20509;-67
2024/01/10 02:56:07;;;;;;;40.00;14.52;;;;;;;-5.22;100.00;94360.97;5031821;28;20045;-67
2024/01/10 02:58:34;;;;;;;39.42;14.15;;;;;;;-5.22;100.00;94355.63;5031968;28;20061;-67
2024/01/10 03:01:01;;;;;;;45.03;15.17;;;;;;;-5.29;100.00;94347.25;5047463;28;20055;-67
2024/01/10 03:03:28;;;;;;;40.85;15.63;;;;;;;-5.37;100.00;94349.84;5031245;28;20588;-67
2024/01/10 03:05:55;;;;;;;40.67;15.15;;;;;;;-5.20;100.00;94355.31;5032342;28;20068;-67
2024/01/10 03:08:22;;;;;;;45.38;15.48;;;;;;;-5.20;100.00;94365.25;5031781;28;20114;-67
2024/01/10 03:10:48;;;;;;;43.67;15.85;;;;;;;-5.24;100.00;94352.47;5031766;28;20758;-67
2024/01/10 03:13:15;;;;;;;40.00;15.13;;;;;;;-5.63;100.00;94353.91;5031648;28;20102;-67
2024/01/10 03:15:42;;;;;;;42.45;14.55;;;;;;;-5.70;100.00;94352.75;5031733;28;20428;-67
2024/01/10 03:18:09;;;;;;;41.90;15.35;;;;;;;-5.71;100.00;94351.19;5031224;28;20490;-66
2024/01/10 03:20:36;;;;;;;41.25;14.50;;;;;;;-5.86;100.00;94346.94;5031536;28;20045;-67
2024/01/10 03:23:03;;;;;;;40.85;15.18;;;;;;;-6.09;100.00;94344.28;5031341;28;20197;-66
2024/01/10 03:25:30;;;;;;;37.77;14.07;;;;;;;-5.96;100.00;94347.22;5031436;28;20064;-67
2024/01/10 03:27:56;;;;;;;38.17;13.48;;;;;;;-5.98;100.00;94344.81;5031841;28;20063;-67
2024/01/10 03:30:24;;;;;;;41.45;15.55;;;;;;;-6.04;100.00;94336.16;5031368;28;20403;-67
2024/01/10 03:32:51;;;;;;;46.78;15.60;;;;;;;-5.82;100.00;94337.25;5046581;28;20048;-67
2024/01/10 03:35:18;;;;;;;41.35;14.75;;;;;;;-5.69;100.00;94338.31;5031195;28;20052;-67
2024/01/10 03:37:45;;;;;;;40.77;14.53;;;;;;;-5.50;100.00;94341.59;5031526;28;20167;-67
2024/01/10 03:40:12;;;;;;;39.95;14.13;;;;;;;-5.47;100.00;94341.00;5030563;28;20092;-67
2024/01/10 03:42:39;;;;;;;41.22;14.73;;;;;;;-5.37;100.00;94341.81;5031392;28;20037;-67
2024/01/10 03:45:06;;;;;;;44.25;15.57;;;;;;;-5.42;100.00;94340.06;5031193;28;20049;-67
2024/01/10 03:47:32;;;;;;;41.63;15.43;;;;;;;-5.36;100.00;94354.13;5029792;28;20421;-68
2024/01/10 03:49:59;;;;;;;40.77;14.87;;;;;;;-5.33;100.00;94353.50;5031430;28;20068;-68
2024/01/10 03:52:26;;;;;;;42.97;15.65;;;;;;;-5.22;100.00;94360.19;5030769;28;20434;-68
2024/01/10 03:54:53;;;;;;;42.67;15.20;;;;;;;-5.27;100.00;94369.13;5030918;28;20099;-68
2024/01/10 03:57:20;;;;;;;44.47;15.90;;;;;;;-5.59;100.00;94366.66;5030687;28;20052;-68
2024/01/10 03:59:46;;;;;;;44.00;15.13;;;;;;;-5.55;100.00;94368.47;5031179;28;20037;-68
2024/01/10 04:02:13;;;;;;;41.23;14.77;;;;;;;-5.62;100.00;94368.06;5030882;28;20385;-67
2024/01/10 04:04:40;;;;;;;45.65;15.18;;;;;;;-5.82;100.00;94382.69;5030781;28;20041;-68
2024/01/10 04:07:07;;;;;;;42.40;14.20;;;;;;;-5.83;100.00;94383.78;5030618;28;20045;-67
2024/01/10 04:09:34;;;;;;;37.80;13.48;;;;;;;-5.82;100.00;94386.13;5030982;28;20041;-67
2024/01/10 04:12:01;;;;;;;45.03;16.67;;;;;;;-6.17;100.00;94379.69;5031107;28;20049;-68
2024/01/10 04:14:27;;;;;;;39.13;14.33;;;;;;;-5.96;100.00;94382.72;5030072;28;20110;-68
2024/01/10 04:16:54;;;;;;;43.25;15.30;;;;;;;-5.57;100.00;94373.31;5029990;28;20064;-68
2024/01/10 04:19:21;;;;;;;38.88;13.73;;;;;;;-5.45;100.00;94378.13;5030153;28;20038;-68
2024/01/10 04:21:48;;;;;;;39.42;13.85;;;;;;;-5.46;100.00;94376.53;5030292;28;20131;-68
2024/01/10 04:24:15;;;;;;;42.38;14.60;;;;;;;-5.32;100.00;94369.25;5030466;28;20053;-67
2024/01/10 04:26:42;;;;;;;40.53;15.07;;;;;;;-5.25;100.00;94366.94;5029099;28;20512;-68
2024/01/10 04:29:08;;;;;;;94.07;34.00;;;;;;;-5.20;100.00;94368.69;5029025;28;20490;-67
2024/01/10 04:31:35;;;;;;;41.95;15.25;;;;;;;-5.22;100.00;94368.22;5030328;28;20047;-68
2024/01/10 04:34:02;;;;;;;44.95;14.07;;;;;;;-5.20;100.00;94358.00;5029876;28;20233;-62
2024/01/10 04:36:29;;;;;;;39.78;14.45;;;;;;;-5.35;100.00;94361.03;5029910;28;20042;-68
2024/01/10 04:38:56;;;;;;;43.13;14.97;;;;;;;-5.33;100.00;94370.34;5045063;28;20042;-68
2024/01/10 04:41:23;;;;;;;38.80;14.07;;;;;;;-5.27;100.00;94368.31;5029890;28;20059;-67
2024/01/10 04:43:51;;;;;;;43.45;14.13;;;;;;;-5.19;100.00;94364.13;5029787;28;20091;-68
2024/01/10 04:46:17;;;;;;;38.10;14.48;;;;;;;-5.14;100.00;94369.38;5029587;28;20053;-67
2024/01/10 04:48:46;;;;;;;42.17;14.93;;;;;;;-5.19;100.00;94374.84;5029675;28;20048;-69
2024/01/10 04:51:14;;;;;;;43.13;15.50;;;;;;;-5.41;100.00;94363.06;5011853;28;20051;-68
2024/01/10 04:53:41;;;;;;;38.33;13.90;;;;;;;-5.28;100.00;94370.22;5027592;28;20046;-68
2024/01/10 04:56:08;;;;;;;48.53;17.38;;;;;;;-5.69;100.00;94376.53;5029438;28;20045;-68
2024/01/10 04:58:36;;;;;;;48.47;18.98;;;;;;;-6.23;100.00;94387.03;5024896;28;20037;-69
2024/01/10 05:01:05;;;;;;;48.78;17.98;;;;;;;-6.07;100.00;94384.06;5024061;28;20124;-67
2024/01/10 05:03:37;;;;;;;52.67;20.07;;;;;;;-6.16;100.00;94377.81;5011489;28;20060;-68
2024/01/10 05:06:05;;;;;;;53.90;20.55;;;;;;;-6.21;100.00;94375.25;5010537;28;20080;-67
2024/01/10 05:08:32;;;;;;;47.33;18.23;;;;;;;-6.11;100.00;94380.41;5028212;28;20071;-68
2024/01/10 05:10:59;;;;;;;46.47;16.27;;;;;;;-5.94;100.00;94379.72;5021121;28;20409;-68
2024/01/10 05:13:26;;;;;;;48.55;18.17;;;;;;;-5.83;100.00;94376.56;5029510;28;20048;-67
2024/01/10 05:15:53;;;;;;;50.40;18.40;;;;;;;-5.82;100.00;94378.13;5028179;28;20433;-67
2024/01/10 05:18:21;;;;;;;50.45;18.27;;;;;;;-5.68;100.00;94375.41;5028958;28;20052;-67
2024/01/10 05:20:49;;;;;;;51.10;18.30;;;;;;;-5.81;100.00;94381.59;5027727;28;20489;-69
2024/01/10 05:23:17;;;;;;;55.28;22.30;;;;;;;-6.25;100.00;94373.19;5025170;28;20499;-68
2024/01/10 05:25:44;;;;;;;48.67;17.67;;;;;;;-5.97;100.00;94375.03;5029102;28;20526;-68
2024/01/10 05:28:10;;;;;;;48.33;16.63;;;;;;;-5.73;100.00;94364.06;5027669;28;20038;-67
2024/01/10 05:30:39;;;;;;;44.33;17.13;;;;;;;-5.49;100.00;94364.56;5026807;28;20244;-68
2024/01/10 05:33:08;;;;;;;49.60;17.88;;;;;;;-5.36;100.00;94370.16;5025985;28;20046;-68
2024/01/10 05:35:37;;;;;;;48.90;17.27;;;;;;;-5.50;100.00;94375.56;5027896;28;20420;-68
2024/01/10 05:38:05;;;;;;;52.35;18.42;;;;;;;-5.68;100.00;94375.41;5027138;28;20049;-67
2024/01/10 05:40:32;;;;;;;44.87;17.00;;;;;;;-5.86;100.00;94377.13;5029030;28;20042;-68
2024/01/10 05:42:59;;;;;;;53.05;20.50;;;;;;;-6.26;100.00;94376.94;5028926;28;20049;-68
2024/01/10 05:45:26;;;;;;;50.47;18.80;;;;;;;-5.84;100.00;94366.94;5027289;28;20049;-67
2024/01/10 05:47:54;;;;;;;50.13;18.10;;;;;;;-5.50;100.00;94371.00;5028894;28;20053;-68
2024/01/10 05:50:21;;;;;;;46.47;17.33;;;;;;;-5.37;100.00;94366.72;5028522;28;20049;-67
2024/01/10 05:52:48;;;;;;;49.27;17.23;;;;;;;-5.37;100.00;94372.06;5027294;28;20045;-68
2024/01/10 05:55:15;;;;;;;53.10;18.77;;;;;;;-5.32;100.00;94371.91;5028529;28;20098;-67
2024/01/10 05:57:42;;;;;;;48.72;16.70;;;;;;;-5.23;100.00;94377.34;5028600;28;20402;-67
2024/01/10 06:00:10;;;;;;;51.80;18.38;;;;;;;-5.34;100.00;94376.78;5026955;28;20041;-66
2024/01/10 06:02:40;;;;;;;56.35;18.13;;;;;;;-5.23;100.00;94378.13;5010681;28;20049;-67
2024/01/10 06:05:08;;;;;;;44.83;15.67;;;;;;;-5.14;100.00;94378.19;5018950;28;20448;-66
2024/01/10 06:07:36;;;;;;;42.83;15.95;;;;;;;-5.24;100.00;94373.88;5028841;28;20052;-67
2024/01/10 06:10:03;;;;;;;47.53;15.85;;;;;;;-5.35;100.00;94375.22;5028476;28;20047;-66
2024/01/10 06:12:30;;;;;;;56.03;20.55;;;;;;;-5.54;100.00;94377.25;5028611;28;20044;-67
2024/01/10 06:14:57;;;;;;;45.67;16.85;;;;;;;-5.34;100.00;94379.47;5028196;28;20045;-67
2024/01/10 06:17:24;;;;;;;43.83;16.13;;;;;;;-5.25;100.00;94379.53;5027637;28;20049;-67
2024/01/10 06:19:51;;;;;;;43.20;16.02;;;;;;;-5.26;100.00;94384.06;5028014;28;20049;-67
2024/01/10 06:22:18;;;;;;;42.22;16.40;;;;;;;-5.27;100.00;94385.19;5028251;28;20106;-67
2024/01/10 06:24:45;;;;;;;42.97;14.52;;;;;;;-5.15;100.00;94394.53;5027079;28;20041;-67
2024/01/10 06:27:11;;;;;;;48.85;16.65;;;;;;;-5.32;100.00;94387.19;5028222;28;20037;-67
2024/01/10 06:29:38;;;;;;;42.27;14.80;;;;;;;-5.43;100.00;94392.00;5043998;28;20509;-67
2024/01/10 06:32:06;;;;;;;43.90;14.98;;;;;;;-5.40;100.00;94386.03;5027982;28;20041;-66
2024/01/10 06:34:33;;;;;;;42.92;15.40;;;;;;;-5.17;100.00;94394.06;5028401;28;20049;-67
2024/01/10 06:37:00;;;;;;;44.00;15.25;;;;;;;-5.16;100.00;94398.31;5028046;28;20624;-67
2024/01/10 06:39:27;;;;;;;48.38;15.70;;;;;;;-5.12;100.00;94388.59;5028206;28;20048;-67
2024/01/10 06:41:54;;;;;;;43.30;15.67;;;;;;;-5.06;100.00;94392.72;5028250;28;20041;-67
2024/01/10 06:44:21;;;;;;;55.72;17.55;;;;;;;-4.88;100.00;94391.72;5027996;28;20044;-67
2024/01/10 06:46:48;;;;;;;47.45;16.70;;;;;;;-4.82;100.00;94390.50;5027859;28;20064;-67
2024/01/10 06:49:15;;;;;;;50.33;15.68;;;;;;;-4.72;100.00;94391.34;5028057;28;20048;-67
2024/01/10 06:51:42;;;;;;;39.20;15.13;;;;;;;-4.68;100.00;94386.97;5028228;28;20448;-67
2024/01/10 06:54:08;;;;;;;47.73;14.77;;;;;;;-4.72;100.00;94394.03;5028057;28;20397;-67
2024/01/10 06:56:35;;;;;;;38.65;15.18;;;;;;;-4.91;100.00;94400.38;5027363;28;20116;-67
2024/01/10 06:59:02;;;;;;;43.08;15.27;;;;;;;-5.01;100.00;94395.25;5028266;28;20525;-67
2024/01/10 07:01:30;;;;;;;42.83;14.75;;;;;;;-5.12;100.00;94401.97;5027258;28;20473;-67
2024/01/10 07:03:56;;;;;;;52.28;16.17;;;;;;;-5.07;100.00;94399.97;5028077;28;20059;-67
2024/01/10 07:06:23;;;;;;;46.50;16.07;;;;;;;-5.00;100.00;94399.53;5043098;28;20822;-67
2024/01/10 07:08:51;;;;;;;45.90;15.52;;;;;;;-5.26;100.00;94405.47;5028063;28;20388;-67
2024/01/10 07:11:19;;;;;;;45.33;16.20;;;;;;;-5.42;100.00;94406.94;5027842;28;20052;-66
2024/01/10 07:13:47;;;;;;;46.38;16.55;;;;;;;-5.30;100.00;94409.06;5026663;28;20155;-67
2024/01/10 07:16:16;;;;;;;52.17;17.08;;;;;;;-5.15;100.00;94406.06;5028483;28;20126;-66
2024/01/10 07:18:45;;;;;;;44.37;15.50;;;;;;;-5.20;100.00;94416.84;5031469;28;20037;-67
2024/01/10 07:21:12;;;;;;;49.42;15.98;;;;;;;-5.15;100.00;94413.28;5031102;28;20038;-67
2024/01/10 07:23:40;;;;;;;50.55;17.40;;;;;;;-5.12;100.00;94415.34;5031690;28;20415;-67
2024/01/10 07:26:08;;;;;;;64.82;21.80;;;;;;;-5.09;100.00;94418.22;5031269;28;20060;-67
2024/01/10 07:28:35;;;;;;;69.90;25.75;;;;;;;-4.95;100.00;94430.72;5031791;28;20041;-67
2024/01/10 07:31:02;;;;;;;65.13;26.13;;;;;;;-4.95;100.00;94428.88;5046996;28;20410;-67
2024/01/10 07:33:30;;;;;;;60.63;23.00;;;;;;;-5.04;100.00;94434.13;5031027;28;21558;-67
2024/01/10 07:35:58;;;;;;;48.40;17.73;;;;;;;-4.99;100.00;94437.78;5031691;28;20053;-67
2024/01/10 07:38:24;;;;;;;52.25;19.48;;;;;;;-4.89;100.00;94434.84;5031243;28;20405;-67
2024/01/10 07:40:51;;;;;;;50.40;18.45;;;;;;;-4.84;100.00;94435.53;5031143;28;20072;-66
2024/01/10 07:43:18;;;;;;;56.60;19.97;;;;;;;-4.81;100.00;94444.84;5031032;28;20102;-66
2024/01/10 07:45:44;;;;;;;54.35;17.27;;;;;;;-4.67;100.00;94450.94;5031350;28;20155;-66
2024/01/10 07:48:11;;;;;;;48.70;17.08;;;;;;;-4.50;100.00;94444.09;5029592;28;20379;-66
2024/01/10 07:50:38;;;;;;;49.35;16.42;;;;;;;-4.34;100.00;94442.59;5031769;28;20037;-66
2024/01/10 07:53:05;;;;;;;55.92;20.13;;;;;;;-4.47;100.00;94448.81;5031051;28;20387;-65
2024/01/10 07:55:32;;;;;;;46.20;16.77;;;;;;;-4.45;100.00;94447.44;5031649;28;20400;-66
2024/01/10 07:57:58;;;;;;;45.83;15.80;;;;;;;-4.62;100.00;94445.44;5031488;28;20037;-66
2024/01/10 08:00:25;;;;;;;46.60;16.63;;;;;;;-4.58;100.00;94452.88;5030174;28;20493;-66
2024/01/10 08:02:52;;;;;;;51.13;16.38;;;;;;;-4.65;100.00;94447.94;5031480;28;20490;-66
2024/01/10 08:05:21;;;;;;;56.10;19.10;;;;;;;-4.59;100.00;94456.63;5030876;28;20636;-66
2024/01/10 08:07:48;;;;;;;50.20;17.00;;;;;;;-4.47;100.00;94454.19;5031081;28;20050;-66
2024/01/10 08:10:15;;;;;;;59.75;17.25;;;;;;;-4.45;100.00;94452.78;5030719;28;20072;-66
2024/01/10 08:12:42;;;;;;;59.55;18.15;;;;;;;-4.33;100.00;94456.78;5031431;28;20030;-66
2024/01/10 08:15:10;;;;;;;49.67;17.10;;;;;;;-4.41;100.00;94452.94;5030666;28;20038;-66
2024/01/10 08:17:39;;;;;;;59.08;18.73;;;;;;;-4.19;100.00;94454.78;5036570;28;20054;-66
2024/01/10 08:20:08;;;;;;;55.97;19.70;;;;;;;-4.11;100.00;94455.94;5030633;28;20038;-66
2024/01/10 08:22:35;;;;;;;60.80;19.13;;;;;;;-3.94;100.00;94452.50;5031257;28;20042;-66
2024/01/10 08:25:03;;;;;;;63.28;21.15;;;;;;;-3.87;100.00;94450.19;5030761;28;20041;-66
2024/01/10 08:27:29;;;;;;;59.45;19.55;;;;;;;-3.70;100.00;94452.09;5028877;28;20500;-66
2024/01/10 08:29:56;;;;;;;65.38;20.98;;;;;;;-3.61;100.00;94453.72;5030940;28;20045;-66
2024/01/10 08:32:23;;;;;;;57.40;18.07;;;;;;;-3.51;100.00;94457.22;5030709;28;20118;-66
2024/01/10 08:34:50;;;;;;;54.33;18.48;;;;;;;-3.40;100.00;94469.25;5030962;28;20053;-66
2024/01/10 08:37:17;;;;;;;58.25;20.08;;;;;;;-3.36;100.00;94464.81;5029132;28;20050;-66
2024/01/10 08:39:44;;;;;;;61.95;20.52;;;;;;;-3.05;100.00;94461.22;5030994;28;20090;-67
2024/01/10 08:42:11;;;;;;;59.63;21.02;;;;;;;-2.91;100.00;94461.84;5029990;28;20038;-66
2024/01/10 08:44:38;;;;;;;51.70;19.07;;;;;;;-2.65;100.00;94472.56;5030875;28;20491;-66
2024/01/10 08:47:05;;;;;;;49.85;17.48;;;;;;;-2.61;100.00;94467.34;5028531;28;20046;-66
2024/01/10 08:49:32;;;;;;;55.40;18.90;;;;;;;-2.34;100.00;94465.41;5030714;28;20437;-67
2024/01/10 08:51:58;;;;;;;48.97;16.35;;;;;;;-2.29;100.00;94471.41;5030575;28;20044;-67
2024/01/10 08:54:26;;;;;;;46.17;16.90;;;;;;;-2.37;100.00;94471.41;5030205;28;20106;-66
2024/01/10 08:56:53;;;;;;;55.87;18.20;;;;;;;-2.31;100.00;94468.25;5030365;28;20423;-67
2024/01/10 08:59:20;;;;;;;46.83;15.93;;;;;;;-2.18;100.00;94469.16;5030088;28;20049;-66
2024/01/10 09:01:47;;;;;;;52.88;16.88;;;;;;;-2.23;100.00;94466.66;5030377;28;20047;-67
2024/01/10 09:04:14;;;;;;;42.40;16.17;;;;;;;-2.27;100.00;94471.09;5029672;28;20093;-66
2024/01/10 09:06:40;;;;;;;50.00;17.00;;;;;;;-3.19;100.00;94477.47;5030333;28;20041;-68
2024/01/10 09:09:07;;;;;;;48.63;16.27;;;;;;;-3.59;100.00;94472.19;5029743;28;20316;-66
2024/01/10 09:11:35;;;;;;;50.67;18.58;;;;;;;-3.45;100.00;94478.22;5030239;28;20041;-67
2024/01/10 09:14:08;;;;;;;53.03;18.35;;;;;;;-3.27;100.00;94479.03;5029708;28;20048;-66
2024/01/10 09:16:36;;;;;;;61.78;19.05;;;;;;;-3.20;100.00;94489.28;5029993;28;20448;-67
2024/01/10 09:19:02;;;;;;;59.25;17.80;;;;;;;-2.75;100.00;94486.31;5029498;28;20139;-67
2024/01/10 09:21:29;;;;;;;69.87;17.63;;;;;;;-2.52;100.00;94489.59;5029163;28;20829;-66
2024/01/10 09:23:56;;;;;;;60.67;19.00;;;;;;;-2.83;100.00;94492.50;5030013;28;20042;-66
2024/01/10 09:26:24;;;;;;;57.10;16.88;;;;;;;-2.42;100.00;94491.97;5029514;28;20442;-67
2024/01/10 09:28:51;;;;;;;71.35;18.52;;;;;;;-2.25;100.00;94499.22;5029687;28;20526;-67
2024/01/10 09:31:18;;;;;;;63.47;17.80;;;;;;;-1.99;100.00;94500.25;5029385;28;20413;-67
2024/01/10 09:33:45;;;;;;;81.43;17.70;;;;;;;-1.88;100.00;94493.41;5029942;28;20714;-67
2024/01/10 09:36:13;;;;;;;60.83;18.58;;;;;;;-1.79;100.00;94490.69;5029094;28;20042;-66
2024/01/10 09:38:39;;;;;;;67.97;19.33;;;;;;;-1.62;100.00;94499.47;5029205;28;20042;-66
2024/01/10 09:41:06;;;;;;;66.72;21.38;;;;;;;-1.89;100.00;94497.19;5029009;28;20033;-65
2024/01/10 09:43:33;;;;;;;62.83;18.63;;;;;;;-1.61;100.00;94490.31;5029856;28;20041;-66
2024/01/10 09:46:02;;;;;;;54.53;16.47;;;;;;;-1.08;100.00;94498.09;5029322;28;20056;-67
2024/01/10 09:48:30;;;;;;;60.38;15.73;;;;;;;-0.95;100.00;94494.34;5028646;28;21543;-67
2024/01/10 09:50:57;;;;;;;51.15;16.98;;;;;;;-0.70;100.00;94507.97;5029248;28;20605;-66
2024/01/10 09:53:31;;;;;;;70.18;18.00;;;;;;;-0.99;100.00;94503.41;5029140;28;20052;-67
2024/01/10 09:55:59;;;;;;;49.53;15.50;;;;;;;-0.98;100.00;94496.91;5029323;28;20049;-67
2024/01/10 09:58:26;;;;;;;52.87;15.27;;;;;;;-0.82;100.00;94493.28;5028941;28;20038;-67
2024/01/10 10:00:53;;;;;;;54.05;15.73;;;;;;;-0.74;100.00;94496.25;5029351;28;20041;-67
2024/01/10 10:03:20;;;;;;;52.97;16.23;;;;;;;-0.91;100.00;94497.94;5028932;28;20051;-66
2024/01/10 10:05:47;;;;;;;47.40;15.80;;;;;;;-1.34;100.00;94499.03;5029454;28;20366;-66
2024/01/10 10:08:15;;;;;;;56.67;20.38;;;;;;;-1.03;100.00;94503.25;5028885;28;20470;-66
2024/01/10 10:10:45;;;;;;;63.67;18.43;;;;;;;-1.39;100.00;94496.50;5029399;28;20034;-66
2024/01/10 10:13:27;;;;;;;53.88;18.70;;;;;;;-1.44;100.00;94497.50;5028639;28;20406;-66
2024/01/10 10:16:02;;;;;;;61.08;20.75;;;;;;;-1.27;100.00;94501.19;5029043;28;20045;-67
2024/01/10 10:18:31;;;;;;;66.78;20.88;;;;;;;-1.45;100.00;94505.88;5028171;28;20483;-66
2024/01/10 10:21:28;;;;;;;71.38;22.42;;;;;;;-1.58;100.00;94501.53;5029081;28;20059;-67
2024/01/10 10:23:59;;;;;;;74.27;22.60;;;;;;;-1.68;100.00;94500.78;5019253;28;21509;-67
2024/01/10 10:26:29;;;;;;;78.90;25.40;;;;;;;-1.82;100.00;94505.56;5028854;28;20051;-66
2024/01/10 10:28:55;;;;;;;76.85;26.80;;;;;;;-1.43;100.00;94503.66;5028967;28;20057;-67
2024/01/10 10:31:23;;;;;;;78.30;26.38;;;;;;;-1.50;100.00;94504.16;5027173;28;20075;-66
2024/01/10 10:33:51;;;;;;;60.85;21.52;;;;;;;-1.24;100.00;94505.94;5029201;28;20491;-67
2024/01/10 10:36:20;;;;;;;65.30;22.03;;;;;;;-0.75;100.00;94508.16;5028743;28;20053;-66
2024/01/10 10:38:48;;;;;;;73.93;24.05;;;;;;;-0.49;100.00;94503.31;5029150;28;20048;-67
2024/01/10 10:41:15;;;;;;;110.53;38.88;;;;;;;-0.16;100.00;94504.44;5028411;28;20055;-67
2024/01/10 10:43:42;;;;;;;81.05;27.55;;;;;;;0.07;100.00;94504.88;5029012;28;20044;-67
2024/01/10 10:46:14;;;;;;;52.60;20.02;;;;;;;0.50;100.00;94498.16;5027954;28;20045;-66
2024/01/10 10:48:42;;;;;;;41.33;14.40;;;;;;;0.88;100.00;94499.75;5029124;28;20102;-67
2024/01/10 10:51:11;;;;;;;30.13;10.63;;;;;;;0.61;100.00;94499.31;5030340;28;20041;-67
2024/01/10 10:53:41;;;;;;;22.45;8.35;;;;;;;0.59;100.00;94504.25;5033132;28;20532;-67
2024/01/10 10:56:08;;;;;;;28.45;10.88;;;;;;;0.95;100.00;94503.44;5032140;28;20402;-66
2024/01/10 10:58:45;;;;;;;21.15;8.20;;;;;;;0.77;100.00;94492.09;5032677;28;20548;-67
2024/01/10 11:01:14;;;;;;;19.97;7.70;;;;;;;0.98;100.00;94499.28;5032043;28;20038;-66
2024/01/10 11:03:42;;;;;;;24.88;9.13;;;;;;;1.14;100.00;94485.84;5032688;28;20102;-67
2024/01/10 11:06:10;;;;;;;15.90;6.40;;;;;;;1.23;100.00;94491.13;5031872;28;20050;-66
2024/01/10 11:08:43;;;;;;;35.47;12.05;;;;;;;1.05;100.00;94483.28;5032667;28;20483;-67
2024/01/10 11:11:48;;;;;;;20.10;8.88;;;;;;;1.18;100.00;94492.16;5031865;28;20054;-66